sensor_id;sensor_type;location;lat;lon;timestamp;pressure;altitude;pressure_sealevel;temperature;humidity
69153;BME280;56261;51.580;4.578;2023-02-13T00:01:33;103868.75;;;7.30;100.00
69153;BME280;56261;51.580;4.578;2023-02-13T00:03:59;103867.06;;;7.28;100.00
69153;BME280;56261;51.580;4.578;2023-02-13T00:06:24;103872.63;;;7.22;100.00
69153;BME280;56261;51.580;4.578;2023-02-13T00:08:50;103870.22;;;7.37;100.00
69153;BME280;56261;51.580;4.578;2023-02-13T00:11:15;103873.94;;;7.33;100.00
69153;BME280;56261;51.580;4.578;2023-02-13T00:13:41;103863.00;;;7.39;100.00
69153;BME280;56261;51.580;4.578;2023-02-13T00:16:06;103858.00;;;7.33;100.00
69153;BME280;56261;51.580;4.578;2023-02-13T00:18:35;103856.03;;;7.36;100.00
69153;BME280;56261;51.580;4.578;2023-02-13T00:21:03;103852.38;;;7.39;100.00
69153;BME280;56261;51.580;4.578;2023-02-13T00:23:30;103854.69;;;7.27;100.00
69153;BME280;56261;51.580;4.578;2023-02-13T00:25:57;103848.47;;;7.28;100.00
69153;BME280;56261;51.580;4.578;2023-02-13T00:28:22;103846.09;;;7.22;100.00
69153;BME280;56261;51.580;4.578;2023-02-13T00:30:48;103851.34;;;7.24;100.00
69153;BME280;56261;51.580;4.578;2023-02-13T00:33:13;103842.06;;;7.33;100.00
69153;BME280;56261;51.580;4.578;2023-02-13T00:35:39;103836.22;;;7.26;100.00
69153;BME280;56261;51.580;4.578;2023-02-13T00:38:04;103844.06;;;7.27;100.00
69153;BME280;56261;51.580;4.578;2023-02-13T00:40:30;103841.56;;;7.24;100.00
69153;BME280;56261;51.580;4.578;2023-02-13T00:42:55;103842.38;;;7.26;100.00
69153;BME280;56261;51.580;4.578;2023-02-13T00:45:21;103836.59;;;7.36;100.00
69153;BME280;56261;51.580;4.578;2023-02-13T00:47:46;103833.38;;;7.29;100.00
69153;BME280;56261;51.580;4.578;2023-02-13T00:50:12;103841.56;;;7.24;100.00
69153;BME280;56261;51.580;4.578;2023-02-13T00:52:37;103822.13;;;7.24;100.00
69153;BME280;56261;51.580;4.578;2023-02-13T00:55:02;103842.72;;;7.19;100.00
69153;BME280;56261;51.580;4.578;2023-02-13T00:57:28;103837.72;;;7.13;100.00
69153;BME280;56261;51.580;4.578;2023-02-13T00:59:56;103827.97;;;7.13;100.00
69153;BME280;56261;51.580;4.578;2023-02-13T01:02:21;103836.34;;;7.23;100.00
69153;BME280;56261;51.580;4.578;2023-02-13T01:04:46;103834.34;;;7.28;100.00
69153;BME280;56261;51.580;4.578;2023-02-13T01:07:12;103829.81;;;7.30;100.00
69153;BME280;56261;51.580;4.578;2023-02-13T01:09:37;103833.88;;;7.37;100.00
69153;BME280;56261;51.580;4.578;2023-02-13T01:12:03;103834.19;;;7.31;100.00
69153;BME280;56261;51.580;4.578;2023-02-13T01:14:28;103830.66;;;7.31;100.00
69153;BME280;56261;51.580;4.578;2023-02-13T01:16:53;103827.16;;;7.30;100.00
69153;BME280;56261;51.580;4.578;2023-02-13T01:19:19;103831.22;;;7.37;100.00
69153;BME280;56261;51.580;4.578;2023-02-13T01:21:44;103835.19;;;7.28;100.00
69153;BME280;56261;51.580;4.578;2023-02-13T01:24:10;103835.03;;;7.32;100.00
69153;BME280;56261;51.580;4.578;2023-02-13T01:26:36;103835.13;;;7.30;100.00
69153;BME280;56261;51.580;4.578;2023-02-13T01:29:01;103819.84;;;7.16;100.00
69153;BME280;56261;51.580;4.578;2023-02-13T01:31:27;103834.28;;;7.11;100.00
69153;BME280;56261;51.580;4.578;2023-02-13T01:33:55;103833.78;;;7.21;100.00
69153;BME280;56261;51.580;4.578;2023-02-13T01:36:22;103824.53;;;6.92;100.00
69153;BME280;56261;51.580;4.578;2023-02-13T01:38:47;103834.63;;;7.03;100.00
69153;BME280;56261;51.580;4.578;2023-02-13T01:41:13;103829.88;;;7.10;100.00
69153;BME280;56261;51.580;4.578;2023-02-13T01:43:47;103831.19;;;7.20;100.00
69153;BME280;56261;51.580;4.578;2023-02-13T01:46:23;103831.25;;;7.18;100.00
69153;BME280;56261;51.580;4.578;2023-02-13T01:48:53;103828.88;;;7.31;100.00
69153;BME280;56261;51.580;4.578;2023-02-13T01:51:24;103827.00;;;7.14;100.00
69153;BME280;56261;51.580;4.578;2023-02-13T01:54:00;103826.94;;;7.16;100.00
69153;BME280;56261;51.580;4.578;2023-02-13T01:57:33;103825.72;;;7.23;100.00
69153;BME280;56261;51.580;4.578;2023-02-13T01:59:31;103822.28;;;7.21;100.00
69153;BME280;56261;51.580;4.578;2023-02-13T02:01:59;103830.44;;;7.16;100.00
69153;BME280;56261;51.580;4.578;2023-02-13T02:04:31;103819.78;;;7.18;100.00
69153;BME280;56261;51.580;4.578;2023-02-13T02:07:06;103822.47;;;7.35;100.00
69153;BME280;56261;51.580;4.578;2023-02-13T02:09:36;103820.50;;;7.21;100.00
69153;BME280;56261;51.580;4.578;2023-02-13T02:12:38;103813.84;;;7.13;100.00
69153;BME280;56261;51.580;4.578;2023-02-13T02:15:07;103824.06;;;7.20;100.00
69153;BME280;56261;51.580;4.578;2023-02-13T02:17:33;103815.53;;;7.14;100.00
69153;BME280;56261;51.580;4.578;2023-02-13T02:20:20;103823.09;;;7.04;100.00
69153;BME280;56261;51.580;4.578;2023-02-13T02:44:55;103804.69;;;7.18;100.00
69153;BME280;56261;51.580;4.578;2023-02-13T02:47:34;103800.47;;;7.14;100.00
69153;BME280;56261;51.580;4.578;2023-02-13T02:50:41;103799.31;;;7.20;100.00
69153;BME280;56261;51.580;4.578;2023-02-13T02:53:32;103802.66;;;7.06;100.00
69153;BME280;56261;51.580;4.578;2023-02-13T03:01:21;103792.16;;;7.03;100.00
69153;BME280;56261;51.580;4.578;2023-02-13T03:04:15;103790.31;;;7.05;100.00
69153;BME280;56261;51.580;4.578;2023-02-13T03:07:05;103796.28;;;7.10;100.00
69153;BME280;56261;51.580;4.578;2023-02-13T03:09:36;103790.69;;;6.97;100.00
69153;BME280;56261;51.580;4.578;2023-02-13T03:12:28;103790.47;;;7.02;100.00
69153;BME280;56261;51.580;4.578;2023-02-13T03:15:13;103784.38;;;7.00;100.00
69153;BME280;56261;51.580;4.578;2023-02-13T03:17:38;103784.75;;;6.92;100.00
69153;BME280;56261;51.580;4.578;2023-02-13T03:26:21;103788.19;;;6.75;100.00
69153;BME280;56261;51.580;4.578;2023-02-13T03:34:23;103784.84;;;6.32;100.00
69153;BME280;56261;51.580;4.578;2023-02-13T03:37:02;103789.16;;;6.35;100.00
69153;BME280;56261;51.580;4.578;2023-02-13T03:42:48;103786.13;;;6.03;100.00
69153;BME280;56261;51.580;4.578;2023-02-13T03:45:40;103785.59;;;5.95;100.00
69153;BME280;56261;51.580;4.578;2023-02-13T03:48:23;103784.31;;;5.83;100.00
69153;BME280;56261;51.580;4.578;2023-02-13T03:51:10;103784.53;;;5.78;100.00
69153;BME280;56261;51.580;4.578;2023-02-13T03:53:37;103789.22;;;5.72;100.00
69153;BME280;56261;51.580;4.578;2023-02-13T03:56:05;103784.16;;;5.66;100.00
69153;BME280;56261;51.580;4.578;2023-02-13T03:58:53;103789.06;;;5.54;100.00
69153;BME280;56261;51.580;4.578;2023-02-13T04:01:43;103786.03;;;5.41;100.00
69153;BME280;56261;51.580;4.578;2023-02-13T04:04:50;103796.97;;;5.34;100.00
69153;BME280;56261;51.580;4.578;2023-02-13T04:07:20;103792.69;;;5.30;100.00
69153;BME280;56261;51.580;4.578;2023-02-13T04:10:02;103790.72;;;5.35;100.00
69153;BME280;56261;51.580;4.578;2023-02-13T04:12:47;103795.16;;;5.34;100.00
69153;BME280;56261;51.580;4.578;2023-02-13T04:15:33;103796.56;;;5.21;100.00
69153;BME280;56261;51.580;4.578;2023-02-13T04:18:09;103802.28;;;5.10;100.00
69153;BME280;56261;51.580;4.578;2023-02-13T04:20:37;103786.16;;;4.94;100.00
69153;BME280;56261;51.580;4.578;2023-02-13T04:23:08;103803.69;;;4.97;100.00
69153;BME280;56261;51.580;4.578;2023-02-13T04:25:35;103804.84;;;4.90;100.00
69153;BME280;56261;51.580;4.578;2023-02-13T04:28:02;103807.00;;;4.80;100.00
69153;BME280;56261;51.580;4.578;2023-02-13T04:30:27;103798.44;;;4.73;100.00
69153;BME280;56261;51.580;4.578;2023-02-13T04:32:53;103803.78;;;4.72;100.00
69153;BME280;56261;51.580;4.578;2023-02-13T04:35:18;103807.16;;;4.75;100.00
69153;BME280;56261;51.580;4.578;2023-02-13T04:37:44;103807.41;;;4.69;100.00
69153;BME280;56261;51.580;4.578;2023-02-13T04:40:09;103810.44;;;4.58;100.00
69153;BME280;56261;51.580;4.578;2023-02-13T04:42:35;103804.31;;;4.58;100.00
69153;BME280;56261;51.580;4.578;2023-02-13T04:45:00;103802.00;;;4.49;100.00
69153;BME280;56261;51.580;4.578;2023-02-13T04:47:26;103805.84;;;4.40;100.00
69153;BME280;56261;51.580;4.578;2023-02-13T04:49:51;103800.78;;;4.34;100.00
69153;BME280;56261;51.580;4.578;2023-02-13T04:52:16;103794.84;;;4.27;100.00
69153;BME280;56261;51.580;4.578;2023-02-13T04:54:42;103796.03;;;4.19;100.00
69153;BME280;56261;51.580;4.578;2023-02-13T04:57:08;103794.41;;;4.14;100.00
69153;BME280;56261;51.580;4.578;2023-02-13T04:59:33;103784.13;;;4.07;100.00
69153;BME280;56261;51.580;4.578;2023-02-13T05:01:59;103780.19;;;3.93;100.00
69153;BME280;56261;51.580;4.578;2023-02-13T05:04:24;103798.47;;;4.00;100.00
69153;BME280;56261;51.580;4.578;2023-02-13T05:06:50;103792.47;;;3.94;100.00
69153;BME280;56261;51.580;4.578;2023-02-13T05:09:16;103788.97;;;3.94;100.00
69153;BME280;56261;51.580;4.578;2023-02-13T05:11:41;103788.22;;;3.90;100.00
69153;BME280;56261;51.580;4.578;2023-02-13T05:14:06;103784.03;;;3.85;100.00
69153;BME280;56261;51.580;4.578;2023-02-13T05:16:32;103784.19;;;3.80;100.00
69153;BME280;56261;51.580;4.578;2023-02-13T05:18:57;103777.31;;;3.74;100.00
69153;BME280;56261;51.580;4.578;2023-02-13T05:21:23;103789.78;;;3.71;100.00
69153;BME280;56261;51.580;4.578;2023-02-13T05:24:07;103787.22;;;3.68;100.00
69153;BME280;56261;51.580;4.578;2023-02-13T05:26:32;103790.16;;;3.59;100.00
69153;BME280;56261;51.580;4.578;2023-02-13T05:28:58;103797.38;;;3.53;100.00
69153;BME280;56261;51.580;4.578;2023-02-13T05:31:42;103793.16;;;3.48;100.00
69153;BME280;56261;51.580;4.578;2023-02-13T05:34:07;103791.59;;;3.42;100.00
69153;BME280;56261;51.580;4.578;2023-02-13T05:36:32;103795.25;;;3.38;100.00
69153;BME280;56261;51.580;4.578;2023-02-13T05:38:58;103804.13;;;3.36;100.00
69153;BME280;56261;51.580;4.578;2023-02-13T05:41:24;103795.50;;;3.30;100.00
69153;BME280;56261;51.580;4.578;2023-02-13T05:43:49;103796.44;;;3.28;100.00
69153;BME280;56261;51.580;4.578;2023-02-13T05:46:14;103783.47;;;3.22;100.00
69153;BME280;56261;51.580;4.578;2023-02-13T05:48:40;103794.91;;;3.21;100.00
69153;BME280;56261;51.580;4.578;2023-02-13T05:51:05;103786.09;;;3.22;100.00
69153;BME280;56261;51.580;4.578;2023-02-13T05:53:31;103787.53;;;3.32;100.00
69153;BME280;56261;51.580;4.578;2023-02-13T05:56:00;103792.72;;;3.35;100.00
69153;BME280;56261;51.580;4.578;2023-02-13T05:58:26;103788.03;;;3.43;100.00
69153;BME280;56261;51.580;4.578;2023-02-13T06:00:55;103788.03;;;3.43;100.00
69153;BME280;56261;51.580;4.578;2023-02-13T06:03:22;103790.75;;;3.68;100.00
69153;BME280;56261;51.580;4.578;2023-02-13T06:05:47;103785.53;;;3.65;100.00
69153;BME280;56261;51.580;4.578;2023-02-13T06:08:13;103786.72;;;3.57;100.00
69153;BME280;56261;51.580;4.578;2023-02-13T06:10:38;103788.47;;;3.58;100.00
69153;BME280;56261;51.580;4.578;2023-02-13T06:13:04;103780.69;;;3.53;100.00
69153;BME280;56261;51.580;4.578;2023-02-13T06:15:29;103788.47;;;3.58;100.00
69153;BME280;56261;51.580;4.578;2023-02-13T06:17:54;103792.75;;;3.60;100.00
69153;BME280;56261;51.580;4.578;2023-02-13T06:20:20;103787.53;;;3.59;100.00
69153;BME280;56261;51.580;4.578;2023-02-13T06:22:52;103787.13;;;3.44;100.00
69153;BME280;56261;51.580;4.578;2023-02-13T06:25:18;103776.78;;;3.38;100.00
69153;BME280;56261;51.580;4.578;2023-02-13T06:27:43;103788.28;;;3.36;100.00
69153;BME280;56261;51.580;4.578;2023-02-13T06:30:10;103798.03;;;3.33;100.00
69153;BME280;56261;51.580;4.578;2023-02-13T06:32:35;103786.56;;;3.35;100.00
69153;BME280;56261;51.580;4.578;2023-02-13T06:35:00;103794.69;;;3.28;100.00
69153;BME280;56261;51.580;4.578;2023-02-13T06:37:26;103788.78;;;3.20;100.00
69153;BME280;56261;51.580;4.578;2023-02-13T06:39:51;103795.28;;;3.37;100.00
69153;BME280;56261;51.580;4.578;2023-02-13T06:42:16;103788.47;;;3.29;100.00
69153;BME280;56261;51.580;4.578;2023-02-13T06:44:43;103790.31;;;3.27;100.00
69153;BME280;56261;51.580;4.578;2023-02-13T06:47:08;103790.63;;;3.45;100.00
69153;BME280;56261;51.580;4.578;2023-02-13T06:49:34;103796.88;;;3.42;100.00
69153;BME280;56261;51.580;4.578;2023-02-13T06:51:59;103805.00;;;3.35;100.00
69153;BME280;56261;51.580;4.578;2023-02-13T06:54:24;103797.31;;;3.28;100.00
69153;BME280;56261;51.580;4.578;2023-02-13T06:56:50;103798.41;;;3.21;100.00
69153;BME280;56261;51.580;4.578;2023-02-13T06:59:15;103806.38;;;3.20;100.00
69153;BME280;56261;51.580;4.578;2023-02-13T07:01:40;103814.22;;;3.21;100.00
69153;BME280;56261;51.580;4.578;2023-02-13T07:04:06;103813.34;;;3.22;100.00
69153;BME280;56261;51.580;4.578;2023-02-13T07:06:31;103818.34;;;3.30;100.00
69153;BME280;56261;51.580;4.578;2023-02-13T07:08:57;103816.97;;;3.46;100.00
69153;BME280;56261;51.580;4.578;2023-02-13T07:11:23;103812.78;;;3.39;100.00
69153;BME280;56261;51.580;4.578;2023-02-13T07:13:49;103814.75;;;3.32;100.00
69153;BME280;56261;51.580;4.578;2023-02-13T07:16:15;103816.09;;;3.46;100.00
69153;BME280;56261;51.580;4.578;2023-02-13T07:18:40;103816.38;;;3.37;100.00
69153;BME280;56261;51.580;4.578;2023-02-13T07:21:06;103814.56;;;3.39;100.00
69153;BME280;56261;51.580;4.578;2023-02-13T07:23:32;103820.53;;;3.44;100.00
69153;BME280;56261;51.580;4.578;2023-02-13T07:25:58;103815.13;;;3.22;100.00
69153;BME280;56261;51.580;4.578;2023-02-13T07:28:24;103817.53;;;3.28;100.00
69153;BME280;56261;51.580;4.578;2023-02-13T07:30:50;103818.69;;;3.19;100.00
69153;BME280;56261;51.580;4.578;2023-02-13T07:33:15;103823.56;;;3.33;100.00
69153;BME280;56261;51.580;4.578;2023-02-13T07:35:48;103832.34;;;3.32;100.00
69153;BME280;56261;51.580;4.578;2023-02-13T07:38:17;103830.53;;;3.34;100.00
69153;BME280;56261;51.580;4.578;2023-02-13T07:40:42;103834.66;;;3.43;100.00
69153;BME280;56261;51.580;4.578;2023-02-13T07:43:08;103833.19;;;3.34;100.00
69153;BME280;56261;51.580;4.578;2023-02-13T07:45:34;103825.06;;;3.40;100.00
69153;BME280;56261;51.580;4.578;2023-02-13T07:47:59;103824.94;;;3.45;100.00
69153;BME280;56261;51.580;4.578;2023-02-13T07:50:25;103815.06;;;3.50;100.00
69153;BME280;56261;51.580;4.578;2023-02-13T07:52:55;103822.31;;;3.43;100.00
69153;BME280;56261;51.580;4.578;2023-02-13T07:55:20;103825.09;;;3.67;100.00
69153;BME280;56261;51.580;4.578;2023-02-13T07:57:46;103829.50;;;3.40;100.00
69153;BME280;56261;51.580;4.578;2023-02-13T08:00:12;103833.75;;;3.44;100.00
69153;BME280;56261;51.580;4.578;2023-02-13T08:02:38;103825.91;;;3.42;100.00
69153;BME280;56261;51.580;4.578;2023-02-13T08:05:04;103811.31;;;3.57;100.00
69153;BME280;56261;51.580;4.578;2023-02-13T08:07:29;103832.03;;;3.69;100.00
69153;BME280;56261;51.580;4.578;2023-02-13T08:09:55;103824.78;;;3.76;100.00
69153;BME280;56261;51.580;4.578;2023-02-13T08:12:39;103823.34;;;3.66;100.00
69153;BME280;56261;51.580;4.578;2023-02-13T08:15:05;103824.25;;;3.66;100.00
69153;BME280;56261;51.580;4.578;2023-02-13T08:17:31;103827.38;;;3.78;100.00
69153;BME280;56261;51.580;4.578;2023-02-13T08:19:57;103824.91;;;3.73;100.00
69153;BME280;56261;51.580;4.578;2023-02-13T08:22:22;103834.38;;;3.79;100.00
69153;BME280;56261;51.580;4.578;2023-02-13T08:24:47;103833.91;;;3.66;100.00
69153;BME280;56261;51.580;4.578;2023-02-13T08:27:14;103831.38;;;3.63;100.00
69153;BME280;56261;51.580;4.578;2023-02-13T08:29:40;103844.44;;;3.67;100.00
69153;BME280;56261;51.580;4.578;2023-02-13T08:32:06;103844.13;;;3.77;100.00
69153;BME280;56261;51.580;4.578;2023-02-13T08:34:31;103850.06;;;3.83;100.00
69153;BME280;56261;51.580;4.578;2023-02-13T08:36:57;103843.25;;;3.76;100.00
69153;BME280;56261;51.580;4.578;2023-02-13T08:39:22;103851.22;;;3.74;100.00
69153;BME280;56261;51.580;4.578;2023-02-13T08:41:47;103851.81;;;3.84;100.00
69153;BME280;56261;51.580;4.578;2023-02-13T08:44:13;103851.38;;;3.97;100.00
69153;BME280;56261;51.580;4.578;2023-02-13T08:46:38;103853.03;;;3.99;100.00
69153;BME280;56261;51.580;4.578;2023-02-13T08:49:03;103846.91;;;3.99;100.00
69153;BME280;56261;51.580;4.578;2023-02-13T08:51:29;103849.28;;;4.06;100.00
69153;BME280;56261;51.580;4.578;2023-02-13T08:53:54;103852.16;;;4.00;100.00
69153;BME280;56261;51.580;4.578;2023-02-13T08:56:19;103840.28;;;4.12;100.00
69153;BME280;56261;51.580;4.578;2023-02-13T08:58:48;103857.00;;;4.12;100.00
69153;BME280;56261;51.580;4.578;2023-02-13T09:01:13;103860.41;;;4.16;100.00
69153;BME280;56261;51.580;4.578;2023-02-13T09:03:39;103847.69;;;4.02;100.00
69153;BME280;56261;51.580;4.578;2023-02-13T09:06:04;103850.56;;;4.20;100.00
69153;BME280;56261;51.580;4.578;2023-02-13T09:08:30;103854.59;;;4.31;100.00
69153;BME280;56261;51.580;4.578;2023-02-13T09:11:00;103851.28;;;4.00;100.00
69153;BME280;56261;51.580;4.578;2023-02-13T09:13:29;103858.78;;;4.12;100.00
69153;BME280;56261;51.580;4.578;2023-02-13T09:15:59;103854.50;;;4.33;100.00
69153;BME280;56261;51.580;4.578;2023-02-13T09:18:26;103846.94;;;4.49;100.00
69153;BME280;56261;51.580;4.578;2023-02-13T09:20:59;103852.25;;;4.71;100.00
69153;BME280;56261;51.580;4.578;2023-02-13T09:23:25;103855.38;;;4.82;100.00
69153;BME280;56261;51.580;4.578;2023-02-13T09:25:50;103851.38;;;5.17;100.00
69153;BME280;56261;51.580;4.578;2023-02-13T09:28:16;103841.94;;;5.34;100.00
69153;BME280;56261;51.580;4.578;2023-02-13T09:30:41;103846.97;;;5.40;100.00
69153;BME280;56261;51.580;4.578;2023-02-13T09:33:09;103850.56;;;5.61;100.00
69153;BME280;56261;51.580;4.578;2023-02-13T09:35:36;103842.88;;;6.18;100.00
69153;BME280;56261;51.580;4.578;2023-02-13T09:38:01;103837.81;;;6.92;100.00
69153;BME280;56261;51.580;4.578;2023-02-13T09:41:09;103837.00;;;6.90;100.00
69153;BME280;56261;51.580;4.578;2023-02-13T09:45:47;103831.91;;;7.23;100.00
69153;BME280;56261;51.580;4.578;2023-02-13T09:48:33;103829.59;;;7.52;100.00
69153;BME280;56261;51.580;4.578;2023-02-13T09:50:59;103838.63;;;7.84;100.00
69153;BME280;56261;51.580;4.578;2023-02-13T09:53:27;103840.72;;;7.60;100.00
69153;BME280;56261;51.580;4.578;2023-02-13T09:56:13;103835.03;;;7.85;100.00
69153;BME280;56261;51.580;4.578;2023-02-13T09:58:45;103833.47;;;7.81;100.00
69153;BME280;56261;51.580;4.578;2023-02-13T10:01:30;103837.72;;;7.49;100.00
69153;BME280;56261;51.580;4.578;2023-02-13T10:06:33;103832.53;;;7.10;100.00
69153;BME280;56261;51.580;4.578;2023-02-13T10:09:20;103840.50;;;7.10;100.00
69153;BME280;56261;51.580;4.578;2023-02-13T10:14:44;103844.75;;;6.95;100.00
69153;BME280;56261;51.580;4.578;2023-02-13T10:17:20;103850.06;;;6.95;100.00
69153;BME280;56261;51.580;4.578;2023-02-13T10:22:48;103845.31;;;6.82;100.00
69153;BME280;56261;51.580;4.578;2023-02-13T10:25:20;103843.16;;;7.10;100.00
69153;BME280;56261;51.580;4.578;2023-02-13T10:27:54;103835.41;;;7.24;100.00
69153;BME280;56261;51.580;4.578;2023-02-13T10:30:23;103833.44;;;7.46;100.00
69153;BME280;56261;51.580;4.578;2023-02-13T10:33:12;103834.00;;;7.53;100.00
69153;BME280;56261;51.580;4.578;2023-02-13T10:38:39;103823.28;;;7.72;100.00
69153;BME280;56261;51.580;4.578;2023-02-13T10:46:42;103828.44;;;8.10;100.00
69153;BME280;56261;51.580;4.578;2023-02-13T10:51:52;103819.28;;;8.33;100.00
69153;BME280;56261;51.580;4.578;2023-02-13T10:57:27;103812.34;;;8.30;100.00
69153;BME280;56261;51.580;4.578;2023-02-13T11:00:02;103801.53;;;8.51;100.00
69153;BME280;56261;51.580;4.578;2023-02-13T11:02:30;103798.38;;;8.76;100.00
69153;BME280;56261;51.580;4.578;2023-02-13T11:05:15;103789.16;;;8.66;100.00
69153;BME280;56261;51.580;4.578;2023-02-13T11:07:41;103791.44;;;8.73;100.00
69153;BME280;56261;51.580;4.578;2023-02-13T11:10:23;103789.34;;;8.79;100.00
69153;BME280;56261;51.580;4.578;2023-02-13T11:12:49;103782.06;;;8.98;100.00
69153;BME280;56261;51.580;4.578;2023-02-13T11:17:56;103779.50;;;8.97;100.00
69153;BME280;56261;51.580;4.578;2023-02-13T11:20:36;103772.97;;;9.02;100.00
69153;BME280;56261;51.580;4.578;2023-02-13T11:23:44;103777.16;;;8.90;100.00
69153;BME280;56261;51.580;4.578;2023-02-13T11:26:30;103760.94;;;9.11;100.00
69153;BME280;56261;51.580;4.578;2023-02-13T11:29:00;103759.19;;;9.26;100.00
69153;BME280;56261;51.580;4.578;2023-02-13T11:31:35;103767.41;;;9.37;100.00
69153;BME280;56261;51.580;4.578;2023-02-13T11:34:23;103760.19;;;9.39;100.00
69153;BME280;56261;51.580;4.578;2023-02-13T11:37:16;103763.84;;;9.52;100.00
69153;BME280;56261;51.580;4.578;2023-02-13T11:39:40;103744.66;;;9.62;100.00
69153;BME280;56261;51.580;4.578;2023-02-13T11:42:18;103753.41;;;9.64;100.00
69153;BME280;56261;51.580;4.578;2023-02-13T11:44:49;103746.38;;;9.63;100.00
69153;BME280;56261;51.580;4.578;2023-02-13T11:47:16;103753.69;;;9.59;100.00
69153;BME280;56261;51.580;4.578;2023-02-13T11:49:53;103748.84;;;9.66;100.00
69153;BME280;56261;51.580;4.578;2023-02-13T11:52:31;103742.59;;;9.95;100.00
69153;BME280;56261;51.580;4.578;2023-02-13T11:55:03;103741.38;;;10.01;100.00
69153;BME280;56261;51.580;4.578;2023-02-13T11:57:35;103741.38;;;9.87;100.00
69153;BME280;56261;51.580;4.578;2023-02-13T12:00:40;103739.19;;;10.08;100.00
69153;BME280;56261;51.580;4.578;2023-02-13T12:08:28;103727.13;;;10.31;100.00
69153;BME280;56261;51.580;4.578;2023-02-13T12:10:56;103731.09;;;10.38;100.00
69153;BME280;56261;51.580;4.578;2023-02-13T12:13:30;103727.22;;;10.44;100.00
69153;BME280;56261;51.580;4.578;2023-02-13T12:16:05;103729.00;;;10.57;100.00
69153;BME280;56261;51.580;4.578;2023-02-13T12:18:41;103722.63;;;10.46;100.00
69153;BME280;56261;51.580;4.578;2023-02-13T12:26:37;103722.81;;;10.84;100.00
69153;BME280;56261;51.580;4.578;2023-02-13T12:37:43;103717.72;;;10.94;100.00
69153;BME280;56261;51.580;4.578;2023-02-13T12:51:27;103685.84;;;11.05;100.00
69153;BME280;56261;51.580;4.578;2023-02-13T12:57:10;103683.31;;;11.29;100.00
69153;BME280;56261;51.580;4.578;2023-02-13T13:14:22;103676.94;;;11.45;100.00
69153;BME280;56261;51.580;4.578;2023-02-13T13:25:19;103666.25;;;11.57;100.00
69153;BME280;56261;51.580;4.578;2023-02-13T13:27:52;103672.97;;;11.63;100.00
69153;BME280;56261;51.580;4.578;2023-02-13T13:30:23;103658.03;;;11.48;100.00
69153;BME280;56261;51.580;4.578;2023-02-13T13:32:55;103668.69;;;11.60;100.00
69153;BME280;56261;51.580;4.578;2023-02-13T13:35:25;103668.47;;;11.76;100.00
69153;BME280;56261;51.580;4.578;2023-02-13T13:38:05;103665.84;;;11.63;100.00
69153;BME280;56261;51.580;4.578;2023-02-13T13:41:01;103666.69;;;11.64;100.00
69153;BME280;56261;51.580;4.578;2023-02-13T13:46:23;103660.81;;;11.46;100.00
69153;BME280;56261;51.580;4.578;2023-02-13T13:52:29;103654.06;;;11.66;100.00
69153;BME280;56261;51.580;4.578;2023-02-13T13:54:57;103651.50;;;11.64;100.00
69153;BME280;56261;51.580;4.578;2023-02-13T13:58:19;103646.16;;;11.64;100.00
69153;BME280;56261;51.580;4.578;2023-02-13T14:05:23;103638.97;;;11.78;100.00
69153;BME280;56261;51.580;4.578;2023-02-13T14:26:16;103615.13;;;11.75;100.00
69153;BME280;56261;51.580;4.578;2023-02-13T14:31:19;103615.56;;;11.81;100.00
69153;BME280;56261;51.580;4.578;2023-02-13T14:34:01;103613.63;;;11.83;100.00
69153;BME280;56261;51.580;4.578;2023-02-13T14:36:32;103617.81;;;11.88;100.00
69153;BME280;56261;51.580;4.578;2023-02-13T14:39:05;103606.47;;;11.84;100.00
69153;BME280;56261;51.580;4.578;2023-02-13T14:44:21;103602.81;;;11.98;100.00
69153;BME280;56261;51.580;4.578;2023-02-13T14:46:49;103605.53;;;11.72;100.00
69153;BME280;56261;51.580;4.578;2023-02-13T14:49:28;103604.03;;;11.68;100.00
69153;BME280;56261;51.580;4.578;2023-02-13T14:51:56;103609.88;;;11.73;100.00
69153;BME280;56261;51.580;4.578;2023-02-13T14:54:41;103601.97;;;11.84;100.00
69153;BME280;56261;51.580;4.578;2023-02-13T14:57:22;103603.28;;;11.66;100.00
69153;BME280;56261;51.580;4.578;2023-02-13T14:59:59;103596.59;;;11.84;100.00
69153;BME280;56261;51.580;4.578;2023-02-13T15:02:32;103595.25;;;11.79;100.00
69153;BME280;56261;51.580;4.578;2023-02-13T15:05:05;103595.44;;;11.76;100.00
69153;BME280;56261;51.580;4.578;2023-02-13T15:07:36;103591.91;;;11.75;100.00
69153;BME280;56261;51.580;4.578;2023-02-13T15:10:40;103586.25;;;11.67;100.00
69153;BME280;56261;51.580;4.578;2023-02-13T15:13:02;103584.84;;;11.74;100.00
69153;BME280;56261;51.580;4.578;2023-02-13T15:15:30;103592.25;;;11.71;100.00
69153;BME280;56261;51.580;4.578;2023-02-13T15:18:03;103581.47;;;11.72;100.00
69153;BME280;56261;51.580;4.578;2023-02-13T15:20:34;103576.63;;;11.77;100.00
69153;BME280;56261;51.580;4.578;2023-02-13T15:23:02;103574.81;;;11.65;100.00
69153;BME280;56261;51.580;4.578;2023-02-13T15:25:33;103575.69;;;11.53;100.00
69153;BME280;56261;51.580;4.578;2023-02-13T15:28:00;103572.69;;;11.70;100.00
69153;BME280;56261;51.580;4.578;2023-02-13T15:30:29;103565.59;;;11.82;100.00
69153;BME280;56261;51.580;4.578;2023-02-13T15:33:03;103572.88;;;11.67;100.00
69153;BME280;56261;51.580;4.578;2023-02-13T15:35:38;103567.00;;;11.75;100.00
69153;BME280;56261;51.580;4.578;2023-02-13T15:41:09;103572.28;;;11.63;100.00
69153;BME280;56261;51.580;4.578;2023-02-13T15:46:06;103583.59;;;11.67;100.00
69153;BME280;56261;51.580;4.578;2023-02-13T15:48:33;103580.28;;;11.63;100.00
69153;BME280;56261;51.580;4.578;2023-02-13T15:51:00;103575.69;;;11.66;100.00
69153;BME280;56261;51.580;4.578;2023-02-13T15:53:26;103578.47;;;11.64;100.00